Terminal Aerodrome Forecast
Issued by NWS

Home | Current Version | Previous Version | Text Only | Print | Product List | Glossary On
Versions: 1 2 3 4 5 6 7 8 9 10 11 12 13 14
000
FTUS42 TJSJ 212300
TAFJPS
TAF
TJPS 212329Z 2200/2224 08010KT P6SM VCTS SCT030CB BKN050
      TEMPO 2202/2204 07012G19KT 5SM -TSRA SCT018 BKN030CB
     FM220600 05012KT P6SM VCSH SCT020 BKN040
     FM221330 08014G20KT P6SM VCTS SCT030CB BKN050
      AMD NOT SKED TIL 220300=

USA.gov is the U.S. government's official web portal to all federal, state and local government web resources and services.